sensor_id;sensor_type;location;lat;lon;timestamp;P1;durP1;ratioP1;P2;durP2;ratioP2
75941;SDS011;64622;46.220;19.878;2023-04-24T00:00:47;15.10;;;7.80;;
75941;SDS011;64622;46.220;19.878;2023-04-24T00:03:14;14.10;;;7.53;;
75941;SDS011;64622;46.220;19.878;2023-04-24T00:05:40;16.87;;;8.30;;
75941;SDS011;64622;46.220;19.878;2023-04-24T00:08:07;14.10;;;8.00;;
75941;SDS011;64622;46.220;19.878;2023-04-24T00:10:34;12.88;;;7.65;;
75941;SDS011;64622;46.220;19.878;2023-04-24T00:13:01;13.40;;;7.32;;
75941;SDS011;64622;46.220;19.878;2023-04-24T00:15:28;14.67;;;7.40;;
75941;SDS011;64622;46.220;19.878;2023-04-24T00:17:55;12.25;;;6.70;;
75941;SDS011;64622;46.220;19.878;2023-04-24T00:20:21;12.50;;;6.75;;
75941;SDS011;64622;46.220;19.878;2023-04-24T00:22:48;15.80;;;7.22;;
75941;SDS011;64622;46.220;19.878;2023-04-24T00:25:15;13.18;;;6.50;;
75941;SDS011;64622;46.220;19.878;2023-04-24T00:27:42;11.53;;;5.73;;
75941;SDS011;64622;46.220;19.878;2023-04-24T00:30:08;13.57;;;7.07;;
75941;SDS011;64622;46.220;19.878;2023-04-24T00:32:42;13.80;;;7.47;;
75941;SDS011;64622;46.220;19.878;2023-04-24T00:35:09;15.68;;;8.07;;
75941;SDS011;64622;46.220;19.878;2023-04-24T00:37:36;14.55;;;8.38;;
75941;SDS011;64622;46.220;19.878;2023-04-24T00:40:03;13.33;;;7.80;;
75941;SDS011;64622;46.220;19.878;2023-04-24T00:42:30;14.75;;;7.93;;
75941;SDS011;64622;46.220;19.878;2023-04-24T00:44:57;15.32;;;7.97;;
75941;SDS011;64622;46.220;19.878;2023-04-24T00:47:25;14.73;;;8.00;;
75941;SDS011;64622;46.220;19.878;2023-04-24T00:49:52;16.48;;;8.20;;
75941;SDS011;64622;46.220;19.878;2023-04-24T00:52:19;15.17;;;9.00;;
75941;SDS011;64622;46.220;19.878;2023-04-24T00:54:46;14.57;;;8.93;;
75941;SDS011;64622;46.220;19.878;2023-04-24T00:57:13;17.65;;;9.57;;
75941;SDS011;64622;46.220;19.878;2023-04-24T00:59:44;15.73;;;9.98;;
75941;SDS011;64622;46.220;19.878;2023-04-24T01:02:12;15.60;;;8.23;;
75941;SDS011;64622;46.220;19.878;2023-04-24T01:04:39;16.17;;;9.13;;
75941;SDS011;64622;46.220;19.878;2023-04-24T01:07:06;14.27;;;7.55;;
75941;SDS011;64622;46.220;19.878;2023-04-24T01:09:40;15.95;;;7.93;;
75941;SDS011;64622;46.220;19.878;2023-04-24T01:12:10;16.73;;;9.15;;
75941;SDS011;64622;46.220;19.878;2023-04-24T01:14:37;18.30;;;11.23;;
75941;SDS011;64622;46.220;19.878;2023-04-24T01:17:04;16.93;;;9.47;;
75941;SDS011;64622;46.220;19.878;2023-04-24T01:19:32;17.15;;;10.98;;
75941;SDS011;64622;46.220;19.878;2023-04-24T01:21:58;18.65;;;9.10;;
75941;SDS011;64622;46.220;19.878;2023-04-24T01:24:29;13.82;;;7.90;;
75941;SDS011;64622;46.220;19.878;2023-04-24T01:26:56;15.70;;;6.90;;
75941;SDS011;64622;46.220;19.878;2023-04-24T01:29:24;13.93;;;7.97;;
75941;SDS011;64622;46.220;19.878;2023-04-24T01:31:51;16.70;;;8.70;;
75941;SDS011;64622;46.220;19.878;2023-04-24T01:34:18;17.55;;;9.52;;
75941;SDS011;64622;46.220;19.878;2023-04-24T01:36:45;18.23;;;9.38;;
75941;SDS011;64622;46.220;19.878;2023-04-24T01:39:13;13.65;;;6.03;;
75941;SDS011;64622;46.220;19.878;2023-04-24T01:41:40;15.47;;;9.00;;
75941;SDS011;64622;46.220;19.878;2023-04-24T01:44:06;12.15;;;6.37;;
75941;SDS011;64622;46.220;19.878;2023-04-24T01:46:34;16.70;;;8.38;;
75941;SDS011;64622;46.220;19.878;2023-04-24T01:49:04;14.02;;;7.57;;
75941;SDS011;64622;46.220;19.878;2023-04-24T01:51:30;17.52;;;8.70;;
75941;SDS011;64622;46.220;19.878;2023-04-24T01:53:57;19.70;;;9.67;;
75941;SDS011;64622;46.220;19.878;2023-04-24T01:56:24;18.60;;;8.85;;
75941;SDS011;64622;46.220;19.878;2023-04-24T01:58:52;16.40;;;9.20;;
75941;SDS011;64622;46.220;19.878;2023-04-24T02:01:20;17.50;;;9.93;;
75941;SDS011;64622;46.220;19.878;2023-04-24T02:03:47;19.15;;;8.77;;
75941;SDS011;64622;46.220;19.878;2023-04-24T02:06:14;17.50;;;7.23;;
75941;SDS011;64622;46.220;19.878;2023-04-24T02:08:40;14.32;;;6.65;;
75941;SDS011;64622;46.220;19.878;2023-04-24T02:11:10;13.98;;;8.82;;
75941;SDS011;64622;46.220;19.878;2023-04-24T02:13:37;15.57;;;9.10;;
75941;SDS011;64622;46.220;19.878;2023-04-24T02:16:04;15.70;;;9.45;;
75941;SDS011;64622;46.220;19.878;2023-04-24T02:18:30;18.50;;;9.20;;
75941;SDS011;64622;46.220;19.878;2023-04-24T02:20:57;19.90;;;9.27;;
75941;SDS011;64622;46.220;19.878;2023-04-24T02:23:23;14.87;;;8.18;;
75941;SDS011;64622;46.220;19.878;2023-04-24T02:25:50;15.60;;;8.65;;
75941;SDS011;64622;46.220;19.878;2023-04-24T02:28:17;16.33;;;9.70;;
75941;SDS011;64622;46.220;19.878;2023-04-24T02:30:44;19.47;;;10.03;;
75941;SDS011;64622;46.220;19.878;2023-04-24T02:33:11;18.00;;;9.90;;
75941;SDS011;64622;46.220;19.878;2023-04-24T02:35:38;22.48;;;10.60;;
75941;SDS011;64622;46.220;19.878;2023-04-24T02:38:04;17.50;;;10.80;;
75941;SDS011;64622;46.220;19.878;2023-04-24T02:40:31;21.40;;;9.73;;
75941;SDS011;64622;46.220;19.878;2023-04-24T02:42:58;18.40;;;9.73;;
75941;SDS011;64622;46.220;19.878;2023-04-24T02:45:25;16.67;;;9.07;;
75941;SDS011;64622;46.220;19.878;2023-04-24T02:47:51;18.35;;;10.40;;
75941;SDS011;64622;46.220;19.878;2023-04-24T02:50:18;17.95;;;10.25;;
75941;SDS011;64622;46.220;19.878;2023-04-24T02:52:45;17.25;;;10.07;;
75941;SDS011;64622;46.220;19.878;2023-04-24T02:55:11;16.83;;;10.03;;
75941;SDS011;64622;46.220;19.878;2023-04-24T02:57:38;15.50;;;9.82;;
75941;SDS011;64622;46.220;19.878;2023-04-24T03:00:05;16.95;;;10.68;;
75941;SDS011;64622;46.220;19.878;2023-04-24T03:02:33;19.02;;;10.38;;
75941;SDS011;64622;46.220;19.878;2023-04-24T03:05:00;20.85;;;10.18;;
75941;SDS011;64622;46.220;19.878;2023-04-24T03:07:28;20.70;;;10.80;;
75941;SDS011;64622;46.220;19.878;2023-04-24T03:09:55;19.92;;;10.00;;
75941;SDS011;64622;46.220;19.878;2023-04-24T03:12:22;19.95;;;10.48;;
75941;SDS011;64622;46.220;19.878;2023-04-24T03:14:49;16.85;;;10.23;;
75941;SDS011;64622;46.220;19.878;2023-04-24T03:17:16;20.12;;;10.60;;
75941;SDS011;64622;46.220;19.878;2023-04-24T03:19:43;17.83;;;10.60;;
75941;SDS011;64622;46.220;19.878;2023-04-24T03:22:11;22.30;;;11.77;;
75941;SDS011;64622;46.220;19.878;2023-04-24T03:24:38;19.37;;;10.93;;
75941;SDS011;64622;46.220;19.878;2023-04-24T03:27:05;17.33;;;10.82;;
75941;SDS011;64622;46.220;19.878;2023-04-24T03:29:33;16.45;;;10.40;;
75941;SDS011;64622;46.220;19.878;2023-04-24T03:31:59;18.17;;;10.47;;
75941;SDS011;64622;46.220;19.878;2023-04-24T03:34:27;18.95;;;10.85;;
75941;SDS011;64622;46.220;19.878;2023-04-24T03:36:55;19.30;;;11.43;;
75941;SDS011;64622;46.220;19.878;2023-04-24T03:39:22;21.33;;;12.13;;
75941;SDS011;64622;46.220;19.878;2023-04-24T03:41:49;17.77;;;11.20;;
75941;SDS011;64622;46.220;19.878;2023-04-24T03:44:16;19.27;;;10.93;;
75941;SDS011;64622;46.220;19.878;2023-04-24T03:46:43;22.87;;;12.27;;
75941;SDS011;64622;46.220;19.878;2023-04-24T03:49:10;17.98;;;11.12;;
75941;SDS011;64622;46.220;19.878;2023-04-24T03:51:37;15.73;;;9.50;;
75941;SDS011;64622;46.220;19.878;2023-04-24T03:54:04;16.35;;;10.77;;
75941;SDS011;64622;46.220;19.878;2023-04-24T03:56:31;17.67;;;10.57;;
75941;SDS011;64622;46.220;19.878;2023-04-24T03:58:58;20.40;;;11.40;;
75941;SDS011;64622;46.220;19.878;2023-04-24T04:01:24;16.17;;;10.82;;
75941;SDS011;64622;46.220;19.878;2023-04-24T04:03:51;21.33;;;11.15;;
75941;SDS011;64622;46.220;19.878;2023-04-24T04:06:18;19.02;;;10.82;;
75941;SDS011;64622;46.220;19.878;2023-04-24T04:08:46;19.87;;;10.97;;
75941;SDS011;64622;46.220;19.878;2023-04-24T04:11:13;15.57;;;8.43;;
75941;SDS011;64622;46.220;19.878;2023-04-24T04:13:39;18.42;;;10.38;;
75941;SDS011;64622;46.220;19.878;2023-04-24T04:16:06;19.48;;;10.63;;
75941;SDS011;64622;46.220;19.878;2023-04-24T04:18:35;16.33;;;9.13;;
75941;SDS011;64622;46.220;19.878;2023-04-24T04:21:03;18.00;;;7.33;;
75941;SDS011;64622;46.220;19.878;2023-04-24T04:23:30;12.70;;;5.97;;
75941;SDS011;64622;46.220;19.878;2023-04-24T04:26:00;17.02;;;8.15;;
75941;SDS011;64622;46.220;19.878;2023-04-24T04:28:28;17.50;;;10.40;;
75941;SDS011;64622;46.220;19.878;2023-04-24T04:30:57;16.12;;;8.90;;
75941;SDS011;64622;46.220;19.878;2023-04-24T04:33:25;21.00;;;10.77;;
75941;SDS011;64622;46.220;19.878;2023-04-24T04:35:52;19.33;;;10.07;;
75941;SDS011;64622;46.220;19.878;2023-04-24T04:38:19;17.58;;;9.68;;
75941;SDS011;64622;46.220;19.878;2023-04-24T04:40:46;15.05;;;8.00;;
75941;SDS011;64622;46.220;19.878;2023-04-24T04:43:13;15.07;;;8.80;;
75941;SDS011;64622;46.220;19.878;2023-04-24T04:45:41;16.00;;;10.10;;
75941;SDS011;64622;46.220;19.878;2023-04-24T04:48:12;18.05;;;11.30;;
75941;SDS011;64622;46.220;19.878;2023-04-24T04:50:40;18.95;;;11.27;;
75941;SDS011;64622;46.220;19.878;2023-04-24T04:53:07;16.25;;;10.32;;
75941;SDS011;64622;46.220;19.878;2023-04-24T04:55:34;19.58;;;12.02;;
75941;SDS011;64622;46.220;19.878;2023-04-24T04:58:03;20.50;;;11.93;;
75941;SDS011;64622;46.220;19.878;2023-04-24T05:00:30;19.45;;;11.60;;
75941;SDS011;64622;46.220;19.878;2023-04-24T05:03:02;22.13;;;11.48;;
75941;SDS011;64622;46.220;19.878;2023-04-24T05:05:29;21.20;;;10.95;;
75941;SDS011;64622;46.220;19.878;2023-04-24T05:07:56;23.05;;;11.07;;
75941;SDS011;64622;46.220;19.878;2023-04-24T05:10:23;19.53;;;11.13;;
75941;SDS011;64622;46.220;19.878;2023-04-24T05:12:50;18.23;;;10.13;;
75941;SDS011;64622;46.220;19.878;2023-04-24T05:15:17;19.08;;;10.10;;
75941;SDS011;64622;46.220;19.878;2023-04-24T05:17:44;19.60;;;10.50;;
75941;SDS011;64622;46.220;19.878;2023-04-24T05:20:11;19.73;;;10.40;;
75941;SDS011;64622;46.220;19.878;2023-04-24T05:22:38;20.10;;;11.43;;
75941;SDS011;64622;46.220;19.878;2023-04-24T05:25:04;18.27;;;10.93;;
75941;SDS011;64622;46.220;19.878;2023-04-24T05:27:32;13.73;;;7.07;;
75941;SDS011;64622;46.220;19.878;2023-04-24T05:29:59;15.48;;;6.82;;
75941;SDS011;64622;46.220;19.878;2023-04-24T05:32:26;16.20;;;9.95;;
75941;SDS011;64622;46.220;19.878;2023-04-24T05:34:54;18.93;;;11.17;;
75941;SDS011;64622;46.220;19.878;2023-04-24T05:37:21;17.15;;;10.48;;
75941;SDS011;64622;46.220;19.878;2023-04-24T05:39:48;20.00;;;12.68;;
75941;SDS011;64622;46.220;19.878;2023-04-24T05:42:15;19.17;;;13.15;;
75941;SDS011;64622;46.220;19.878;2023-04-24T05:44:42;17.65;;;12.15;;
75941;SDS011;64622;46.220;19.878;2023-04-24T05:47:08;22.13;;;13.33;;
75941;SDS011;64622;46.220;19.878;2023-04-24T05:49:35;19.35;;;12.48;;
75941;SDS011;64622;46.220;19.878;2023-04-24T05:52:02;20.62;;;12.85;;
75941;SDS011;64622;46.220;19.878;2023-04-24T05:54:30;24.25;;;13.68;;
75941;SDS011;64622;46.220;19.878;2023-04-24T05:56:57;24.90;;;14.77;;
75941;SDS011;64622;46.220;19.878;2023-04-24T05:59:25;21.87;;;13.20;;
75941;SDS011;64622;46.220;19.878;2023-04-24T06:01:52;21.35;;;13.52;;
75941;SDS011;64622;46.220;19.878;2023-04-24T06:04:19;18.65;;;12.05;;
75941;SDS011;64622;46.220;19.878;2023-04-24T06:06:46;20.40;;;13.23;;
75941;SDS011;64622;46.220;19.878;2023-04-24T06:09:17;18.30;;;11.57;;
75941;SDS011;64622;46.220;19.878;2023-04-24T06:11:44;20.00;;;12.93;;
75941;SDS011;64622;46.220;19.878;2023-04-24T06:14:11;22.62;;;13.82;;
75941;SDS011;64622;46.220;19.878;2023-04-24T06:16:39;20.02;;;13.48;;
75941;SDS011;64622;46.220;19.878;2023-04-24T06:19:09;19.85;;;13.25;;
75941;SDS011;64622;46.220;19.878;2023-04-24T06:21:36;18.48;;;12.30;;
75941;SDS011;64622;46.220;19.878;2023-04-24T06:24:02;22.40;;;13.97;;
75941;SDS011;64622;46.220;19.878;2023-04-24T06:26:30;22.40;;;14.95;;
75941;SDS011;64622;46.220;19.878;2023-04-24T06:28:57;29.48;;;17.90;;
75941;SDS011;64622;46.220;19.878;2023-04-24T06:31:25;26.92;;;16.80;;
75941;SDS011;64622;46.220;19.878;2023-04-24T06:33:53;22.23;;;13.70;;
75941;SDS011;64622;46.220;19.878;2023-04-24T06:36:20;31.07;;;21.13;;
75941;SDS011;64622;46.220;19.878;2023-04-24T06:38:46;28.90;;;16.87;;
75941;SDS011;64622;46.220;19.878;2023-04-24T06:41:13;30.10;;;18.20;;
75941;SDS011;64622;46.220;19.878;2023-04-24T06:43:40;27.83;;;17.33;;
75941;SDS011;64622;46.220;19.878;2023-04-24T06:46:07;21.10;;;13.45;;
75941;SDS011;64622;46.220;19.878;2023-04-24T06:48:34;22.77;;;15.33;;
75941;SDS011;64622;46.220;19.878;2023-04-24T06:51:00;22.02;;;13.13;;
75941;SDS011;64622;46.220;19.878;2023-04-24T06:53:27;21.15;;;14.32;;
75941;SDS011;64622;46.220;19.878;2023-04-24T06:55:54;21.00;;;14.25;;
75941;SDS011;64622;46.220;19.878;2023-04-24T06:58:21;21.77;;;13.32;;
75941;SDS011;64622;46.220;19.878;2023-04-24T07:00:47;22.67;;;14.80;;
75941;SDS011;64622;46.220;19.878;2023-04-24T07:03:14;21.98;;;14.48;;
75941;SDS011;64622;46.220;19.878;2023-04-24T07:05:40;21.20;;;14.45;;
75941;SDS011;64622;46.220;19.878;2023-04-24T07:08:07;21.42;;;15.00;;
75941;SDS011;64622;46.220;19.878;2023-04-24T07:10:37;24.90;;;14.70;;
75941;SDS011;64622;46.220;19.878;2023-04-24T07:13:04;22.57;;;14.87;;
75941;SDS011;64622;46.220;19.878;2023-04-24T07:15:33;21.62;;;14.95;;
75941;SDS011;64622;46.220;19.878;2023-04-24T07:18:00;21.05;;;14.27;;
75941;SDS011;64622;46.220;19.878;2023-04-24T07:20:27;23.00;;;15.07;;
75941;SDS011;64622;46.220;19.878;2023-04-24T07:22:53;21.00;;;14.13;;
75941;SDS011;64622;46.220;19.878;2023-04-24T07:25:20;24.17;;;15.97;;
75941;SDS011;64622;46.220;19.878;2023-04-24T07:27:47;25.05;;;16.00;;
75941;SDS011;64622;46.220;19.878;2023-04-24T07:30:16;25.25;;;15.77;;
75941;SDS011;64622;46.220;19.878;2023-04-24T07:32:42;26.08;;;14.95;;
75941;SDS011;64622;46.220;19.878;2023-04-24T07:35:09;22.73;;;14.70;;
75941;SDS011;64622;46.220;19.878;2023-04-24T07:37:36;23.23;;;16.73;;
75941;SDS011;64622;46.220;19.878;2023-04-24T07:40:03;25.23;;;15.88;;
75941;SDS011;64622;46.220;19.878;2023-04-24T07:42:30;25.37;;;17.27;;
75941;SDS011;64622;46.220;19.878;2023-04-24T07:44:57;20.40;;;11.45;;
75941;SDS011;64622;46.220;19.878;2023-04-24T07:47:23;21.87;;;14.35;;
75941;SDS011;64622;46.220;19.878;2023-04-24T07:49:50;23.30;;;14.53;;
75941;SDS011;64622;46.220;19.878;2023-04-24T07:52:16;21.85;;;13.25;;
75941;SDS011;64622;46.220;19.878;2023-04-24T07:54:43;20.83;;;13.50;;
75941;SDS011;64622;46.220;19.878;2023-04-24T07:57:10;21.73;;;13.57;;
75941;SDS011;64622;46.220;19.878;2023-04-24T07:59:36;23.95;;;13.35;;
75941;SDS011;64622;46.220;19.878;2023-04-24T08:02:03;20.67;;;12.80;;
75941;SDS011;64622;46.220;19.878;2023-04-24T08:04:30;19.27;;;10.85;;
75941;SDS011;64622;46.220;19.878;2023-04-24T08:06:56;21.98;;;14.18;;
75941;SDS011;64622;46.220;19.878;2023-04-24T08:09:23;20.65;;;12.55;;
75941;SDS011;64622;46.220;19.878;2023-04-24T08:11:50;18.92;;;13.15;;
75941;SDS011;64622;46.220;19.878;2023-04-24T08:14:17;17.73;;;12.03;;
75941;SDS011;64622;46.220;19.878;2023-04-24T08:16:43;18.00;;;11.77;;
75941;SDS011;64622;46.220;19.878;2023-04-24T08:19:10;17.85;;;11.23;;
75941;SDS011;64622;46.220;19.878;2023-04-24T08:21:37;17.75;;;11.55;;
75941;SDS011;64622;46.220;19.878;2023-04-24T08:24:03;23.42;;;13.15;;
75941;SDS011;64622;46.220;19.878;2023-04-24T08:26:33;19.00;;;11.97;;
75941;SDS011;64622;46.220;19.878;2023-04-24T08:29:00;18.00;;;12.32;;
75941;SDS011;64622;46.220;19.878;2023-04-24T08:31:27;17.50;;;11.93;;
75941;SDS011;64622;46.220;19.878;2023-04-24T08:33:54;20.20;;;12.15;;
75941;SDS011;64622;46.220;19.878;2023-04-24T08:36:20;18.70;;;12.52;;
75941;SDS011;64622;46.220;19.878;2023-04-24T08:38:47;20.37;;;12.60;;
75941;SDS011;64622;46.220;19.878;2023-04-24T08:41:14;19.17;;;12.27;;
75941;SDS011;64622;46.220;19.878;2023-04-24T08:43:42;15.80;;;11.00;;
75941;SDS011;64622;46.220;19.878;2023-04-24T08:46:09;17.12;;;10.18;;
75941;SDS011;64622;46.220;19.878;2023-04-24T08:48:39;17.98;;;10.90;;
75941;SDS011;64622;46.220;19.878;2023-04-24T08:51:07;21.17;;;10.53;;
75941;SDS011;64622;46.220;19.878;2023-04-24T08:53:34;18.27;;;10.45;;
75941;SDS011;64622;46.220;19.878;2023-04-24T08:56:02;15.85;;;9.75;;
75941;SDS011;64622;46.220;19.878;2023-04-24T08:58:29;16.92;;;11.15;;
75941;SDS011;64622;46.220;19.878;2023-04-24T09:00:57;17.65;;;10.10;;
75941;SDS011;64622;46.220;19.878;2023-04-24T09:03:27;17.20;;;9.40;;
75941;SDS011;64622;46.220;19.878;2023-04-24T09:05:54;16.17;;;9.25;;
75941;SDS011;64622;46.220;19.878;2023-04-24T09:08:23;15.15;;;10.27;;
75941;SDS011;64622;46.220;19.878;2023-04-24T09:10:52;14.43;;;9.00;;
75941;SDS011;64622;46.220;19.878;2023-04-24T09:13:19;16.75;;;9.88;;
75941;SDS011;64622;46.220;19.878;2023-04-24T09:15:46;17.23;;;9.93;;
75941;SDS011;64622;46.220;19.878;2023-04-24T09:18:13;15.50;;;9.77;;
75941;SDS011;64622;46.220;19.878;2023-04-24T09:23:31;15.27;;;9.75;;
75941;SDS011;64622;46.220;19.878;2023-04-24T09:25:58;17.75;;;9.93;;
75941;SDS011;64622;46.220;19.878;2023-04-24T09:28:30;15.53;;;9.27;;
75941;SDS011;64622;46.220;19.878;2023-04-24T09:31:14;15.70;;;9.40;;
75941;SDS011;64622;46.220;19.878;2023-04-24T09:33:53;15.38;;;9.23;;
75941;SDS011;64622;46.220;19.878;2023-04-24T09:36:31;13.93;;;9.10;;
75941;SDS011;64622;46.220;19.878;2023-04-24T09:39:03;16.70;;;9.00;;
75941;SDS011;64622;46.220;19.878;2023-04-24T09:41:31;14.97;;;8.80;;
75941;SDS011;64622;46.220;19.878;2023-04-24T09:44:10;13.18;;;8.75;;
75941;SDS011;64622;46.220;19.878;2023-04-24T09:46:42;11.95;;;7.15;;
75941;SDS011;64622;46.220;19.878;2023-04-24T09:49:13;13.90;;;8.27;;
75941;SDS011;64622;46.220;19.878;2023-04-24T09:51:42;14.25;;;8.98;;
75941;SDS011;64622;46.220;19.878;2023-04-24T09:54:21;14.27;;;8.67;;
75941;SDS011;64622;46.220;19.878;2023-04-24T09:56:49;13.77;;;8.40;;
75941;SDS011;64622;46.220;19.878;2023-04-24T09:59:19;20.52;;;10.27;;
75941;SDS011;64622;46.220;19.878;2023-04-24T10:01:46;15.85;;;9.30;;
75941;SDS011;64622;46.220;19.878;2023-04-24T10:04:16;15.15;;;9.40;;
75941;SDS011;64622;46.220;19.878;2023-04-24T10:06:47;16.87;;;10.00;;
75941;SDS011;64622;46.220;19.878;2023-04-24T10:09:16;15.15;;;9.80;;
75941;SDS011;64622;46.220;19.878;2023-04-24T10:11:47;16.42;;;10.90;;
75941;SDS011;64622;46.220;19.878;2023-04-24T10:14:17;16.73;;;10.13;;
75941;SDS011;64622;46.220;19.878;2023-04-24T10:16:50;15.73;;;10.15;;
75941;SDS011;64622;46.220;19.878;2023-04-24T10:19:19;17.23;;;11.83;;
75941;SDS011;64622;46.220;19.878;2023-04-24T10:21:46;20.80;;;11.30;;
75941;SDS011;64622;46.220;19.878;2023-04-24T10:24:13;15.50;;;10.40;;
75941;SDS011;64622;46.220;19.878;2023-04-24T10:26:45;17.08;;;11.52;;
75941;SDS011;64622;46.220;19.878;2023-04-24T10:29:14;16.52;;;11.57;;
75941;SDS011;64622;46.220;19.878;2023-04-24T10:31:43;18.67;;;11.70;;
75941;SDS011;64622;46.220;19.878;2023-04-24T10:34:12;18.33;;;11.40;;
75941;SDS011;64622;46.220;19.878;2023-04-24T10:36:41;21.50;;;11.98;;
75941;SDS011;64622;46.220;19.878;2023-04-24T10:39:12;16.98;;;10.40;;
75941;SDS011;64622;46.220;19.878;2023-04-24T10:41:43;20.50;;;12.02;;
75941;SDS011;64622;46.220;19.878;2023-04-24T10:44:13;16.97;;;10.97;;
75941;SDS011;64622;46.220;19.878;2023-04-24T10:46:44;17.00;;;10.10;;
75941;SDS011;64622;46.220;19.878;2023-04-24T10:49:13;17.62;;;9.98;;
75941;SDS011;64622;46.220;19.878;2023-04-24T10:51:50;18.25;;;10.75;;
75941;SDS011;64622;46.220;19.878;2023-04-24T10:56:55;14.67;;;8.70;;
75941;SDS011;64622;46.220;19.878;2023-04-24T11:00:09;12.37;;;5.50;;
75941;SDS011;64622;46.220;19.878;2023-04-24T11:02:46;19.60;;;10.57;;
75941;SDS011;64622;46.220;19.878;2023-04-24T11:05:19;16.08;;;8.05;;
75941;SDS011;64622;46.220;19.878;2023-04-24T11:10:58;19.50;;;11.57;;
75941;SDS011;64622;46.220;19.878;2023-04-24T11:13:27;18.08;;;11.93;;
75941;SDS011;64622;46.220;19.878;2023-04-24T11:16:20;18.83;;;12.70;;
75941;SDS011;64622;46.220;19.878;2023-04-24T11:24:30;23.10;;;13.50;;
75941;SDS011;64622;46.220;19.878;2023-04-24T11:27:17;19.35;;;11.55;;
75941;SDS011;64622;46.220;19.878;2023-04-24T11:37:32;18.17;;;11.43;;
75941;SDS011;64622;46.220;19.878;2023-04-24T11:40:07;19.12;;;12.10;;
75941;SDS011;64622;46.220;19.878;2023-04-24T11:42:37;18.02;;;11.90;;
75941;SDS011;64622;46.220;19.878;2023-04-24T11:45:11;17.37;;;11.10;;
75941;SDS011;64622;46.220;19.878;2023-04-24T11:47:40;16.33;;;9.70;;
75941;SDS011;64622;46.220;19.878;2023-04-24T11:50:08;18.90;;;11.90;;
75941;SDS011;64622;46.220;19.878;2023-04-24T11:52:48;17.35;;;10.05;;
75941;SDS011;64622;46.220;19.878;2023-04-24T11:57:43;25.92;;;15.65;;
75941;SDS011;64622;46.220;19.878;2023-04-24T12:00:17;17.20;;;9.65;;
75941;SDS011;64622;46.220;19.878;2023-04-24T12:02:45;15.00;;;9.37;;
75941;SDS011;64622;46.220;19.878;2023-04-24T12:05:25;16.08;;;8.98;;
75941;SDS011;64622;46.220;19.878;2023-04-24T12:07:54;14.00;;;7.62;;
75941;SDS011;64622;46.220;19.878;2023-04-24T12:10:21;14.02;;;7.72;;
75941;SDS011;64622;46.220;19.878;2023-04-24T12:12:49;12.90;;;6.97;;
75941;SDS011;64622;46.220;19.878;2023-04-24T12:15:17;14.83;;;8.23;;
75941;SDS011;64622;46.220;19.878;2023-04-24T12:17:46;15.10;;;8.27;;
75941;SDS011;64622;46.220;19.878;2023-04-24T12:20:14;14.87;;;8.65;;
75941;SDS011;64622;46.220;19.878;2023-04-24T12:25:16;14.43;;;9.43;;
75941;SDS011;64622;46.220;19.878;2023-04-24T12:27:53;14.53;;;7.40;;
75941;SDS011;64622;46.220;19.878;2023-04-24T12:30:21;14.25;;;7.70;;
75941;SDS011;64622;46.220;19.878;2023-04-24T12:32:56;11.93;;;6.35;;
75941;SDS011;64622;46.220;19.878;2023-04-24T12:35:25;14.00;;;7.15;;
75941;SDS011;64622;46.220;19.878;2023-04-24T12:37:53;15.25;;;8.82;;
75941;SDS011;64622;46.220;19.878;2023-04-24T12:40:21;24.20;;;15.70;;
75941;SDS011;64622;46.220;19.878;2023-04-24T12:42:48;25.10;;;15.25;;
75941;SDS011;64622;46.220;19.878;2023-04-24T12:45:16;21.05;;;12.82;;
75941;SDS011;64622;46.220;19.878;2023-04-24T12:47:45;18.33;;;10.50;;
75941;SDS011;64622;46.220;19.878;2023-04-24T12:50:12;18.52;;;10.63;;
75941;SDS011;64622;46.220;19.878;2023-04-24T12:52:41;20.27;;;11.67;;
75941;SDS011;64622;46.220;19.878;2023-04-24T12:55:09;16.98;;;10.43;;
75941;SDS011;64622;46.220;19.878;2023-04-24T12:57:38;16.77;;;9.77;;
75941;SDS011;64622;46.220;19.878;2023-04-24T13:00:06;25.70;;;12.57;;
75941;SDS011;64622;46.220;19.878;2023-04-24T13:02:35;21.40;;;13.75;;
75941;SDS011;64622;46.220;19.878;2023-04-24T13:05:01;20.13;;;11.50;;
75941;SDS011;64622;46.220;19.878;2023-04-24T13:07:29;16.23;;;9.55;;
75941;SDS011;64622;46.220;19.878;2023-04-24T13:09:56;13.75;;;8.48;;
75941;SDS011;64622;46.220;19.878;2023-04-24T13:12:24;16.17;;;8.13;;
75941;SDS011;64622;46.220;19.878;2023-04-24T13:14:51;19.75;;;10.38;;
75941;SDS011;64622;46.220;19.878;2023-04-24T13:17:19;14.70;;;7.73;;
75941;SDS011;64622;46.220;19.878;2023-04-24T13:19:45;13.93;;;6.55;;
75941;SDS011;64622;46.220;19.878;2023-04-24T13:22:12;12.30;;;5.75;;
75941;SDS011;64622;46.220;19.878;2023-04-24T13:24:39;12.05;;;5.62;;
75941;SDS011;64622;46.220;19.878;2023-04-24T13:27:07;14.25;;;7.50;;
75941;SDS011;64622;46.220;19.878;2023-04-24T13:29:35;11.00;;;6.23;;
75941;SDS011;64622;46.220;19.878;2023-04-24T13:32:03;11.30;;;5.95;;
75941;SDS011;64622;46.220;19.878;2023-04-24T13:34:29;13.60;;;6.35;;
75941;SDS011;64622;46.220;19.878;2023-04-24T13:36:56;12.90;;;7.00;;
75941;SDS011;64622;46.220;19.878;2023-04-24T13:39:25;13.52;;;7.30;;
75941;SDS011;64622;46.220;19.878;2023-04-24T13:41:52;13.87;;;7.10;;
75941;SDS011;64622;46.220;19.878;2023-04-24T13:44:19;12.40;;;6.60;;
75941;SDS011;64622;46.220;19.878;2023-04-24T13:46:47;12.18;;;7.10;;
75941;SDS011;64622;46.220;19.878;2023-04-24T13:49:15;11.85;;;6.68;;
75941;SDS011;64622;46.220;19.878;2023-04-24T13:51:43;14.60;;;7.43;;
75941;SDS011;64622;46.220;19.878;2023-04-24T13:54:11;15.53;;;9.10;;
75941;SDS011;64622;46.220;19.878;2023-04-24T13:56:39;15.23;;;9.02;;
75941;SDS011;64622;46.220;19.878;2023-04-24T13:59:07;13.73;;;8.63;;
75941;SDS011;64622;46.220;19.878;2023-04-24T14:01:34;13.93;;;7.85;;
75941;SDS011;64622;46.220;19.878;2023-04-24T14:04:01;14.95;;;7.97;;
75941;SDS011;64622;46.220;19.878;2023-04-24T14:06:28;13.77;;;8.50;;
75941;SDS011;64622;46.220;19.878;2023-04-24T14:08:54;14.45;;;7.78;;
75941;SDS011;64622;46.220;19.878;2023-04-24T14:11:21;14.30;;;8.13;;
75941;SDS011;64622;46.220;19.878;2023-04-24T14:13:48;14.85;;;8.55;;
75941;SDS011;64622;46.220;19.878;2023-04-24T14:16:15;13.60;;;8.27;;
75941;SDS011;64622;46.220;19.878;2023-04-24T14:18:42;17.77;;;10.70;;
75941;SDS011;64622;46.220;19.878;2023-04-24T14:21:09;14.18;;;8.95;;
75941;SDS011;64622;46.220;19.878;2023-04-24T14:23:35;14.52;;;7.18;;
75941;SDS011;64622;46.220;19.878;2023-04-24T14:26:02;16.90;;;9.35;;
75941;SDS011;64622;46.220;19.878;2023-04-24T14:28:29;17.50;;;9.30;;
75941;SDS011;64622;46.220;19.878;2023-04-24T14:30:55;13.03;;;7.20;;
75941;SDS011;64622;46.220;19.878;2023-04-24T14:33:22;18.60;;;8.63;;
75941;SDS011;64622;46.220;19.878;2023-04-24T14:35:49;16.20;;;7.82;;
75941;SDS011;64622;46.220;19.878;2023-04-24T14:38:16;13.93;;;7.53;;
75941;SDS011;64622;46.220;19.878;2023-04-24T14:40:43;11.95;;;6.47;;
75941;SDS011;64622;46.220;19.878;2023-04-24T14:43:09;17.20;;;7.73;;
75941;SDS011;64622;46.220;19.878;2023-04-24T14:45:37;12.13;;;5.93;;